sensor_id;sensor_type;location;lat;lon;timestamp;pressure;altitude;pressure_sealevel;temperature;humidity
48810;BME280;40070;47.322;18.784;2023-06-22T00:01:56;1005.38;;;24.53;76.59
48810;BME280;40070;47.322;18.784;2023-06-22T00:03:59;1005.43;;;24.55;76.36
48810;BME280;40070;47.322;18.784;2023-06-22T00:06:01;1005.47;;;24.55;76.17
48810;BME280;40070;47.322;18.784;2023-06-22T00:08:04;1005.41;;;24.59;75.46
48810;BME280;40070;47.322;18.784;2023-06-22T00:10:07;1005.36;;;24.39;75.64
48810;BME280;40070;47.322;18.784;2023-06-22T00:12:10;1005.32;;;24.24;76.32
48810;BME280;40070;47.322;18.784;2023-06-22T00:14:12;1005.36;;;24.19;77.19
48810;BME280;40070;47.322;18.784;2023-06-22T00:16:14;1005.31;;;24.07;77.59
48810;BME280;40070;47.322;18.784;2023-06-22T00:18:17;1005.21;;;24.08;77.94
48810;BME280;40070;47.322;18.784;2023-06-22T00:20:19;1005.16;;;24.19;78.12
48810;BME280;40070;47.322;18.784;2023-06-22T00:22:23;1005.14;;;24.36;77.63
48810;BME280;40070;47.322;18.784;2023-06-22T00:24:25;1005.11;;;24.32;77.51
48810;BME280;40070;47.322;18.784;2023-06-22T00:26:28;1005.16;;;24.37;77.23
48810;BME280;40070;47.322;18.784;2023-06-22T00:28:30;1005.20;;;24.21;77.80
48810;BME280;40070;47.322;18.784;2023-06-22T00:30:33;1005.17;;;24.40;77.00
48810;BME280;40070;47.322;18.784;2023-06-22T00:32:36;1005.12;;;24.31;77.00
48810;BME280;40070;47.322;18.784;2023-06-22T00:34:38;1005.11;;;24.01;78.29
48810;BME280;40070;47.322;18.784;2023-06-22T00:36:41;1005.04;;;24.01;78.76
48810;BME280;40070;47.322;18.784;2023-06-22T00:38:43;1005.08;;;24.05;78.26
48810;BME280;40070;47.322;18.784;2023-06-22T00:40:46;1005.17;;;23.81;79.43
48810;BME280;40070;47.322;18.784;2023-06-22T00:42:48;1005.21;;;24.01;78.81
48810;BME280;40070;47.322;18.784;2023-06-22T00:44:51;1005.24;;;24.03;78.69
48810;BME280;40070;47.322;18.784;2023-06-22T00:46:53;1005.22;;;23.98;78.89
48810;BME280;40070;47.322;18.784;2023-06-22T00:48:56;1005.27;;;23.94;78.78
48810;BME280;40070;47.322;18.784;2023-06-22T00:50:58;1005.30;;;23.90;79.42
48810;BME280;40070;47.322;18.784;2023-06-22T00:53:03;1005.29;;;23.83;80.37
48810;BME280;40070;47.322;18.784;2023-06-22T00:55:06;1005.22;;;23.72;79.35
48810;BME280;40070;47.322;18.784;2023-06-22T00:57:08;1005.12;;;23.69;79.30
48810;BME280;40070;47.322;18.784;2023-06-22T00:59:11;1005.17;;;24.10;77.99
48810;BME280;40070;47.322;18.784;2023-06-22T01:01:14;1005.14;;;24.29;77.11
48810;BME280;40070;47.322;18.784;2023-06-22T01:03:16;1005.08;;;24.27;77.19
48810;BME280;40070;47.322;18.784;2023-06-22T01:05:20;1005.02;;;24.27;76.84
48810;BME280;40070;47.322;18.784;2023-06-22T01:07:31;1005.02;;;24.15;77.18
48810;BME280;40070;47.322;18.784;2023-06-22T01:09:38;1005.00;;;23.92;77.70
48810;BME280;40070;47.322;18.784;2023-06-22T01:11:48;1004.98;;;23.71;78.97
48810;BME280;40070;47.322;18.784;2023-06-22T01:14:06;1005.04;;;24.07;77.75
48810;BME280;40070;47.322;18.784;2023-06-22T01:16:34;1005.01;;;23.91;78.38
48810;BME280;40070;47.322;18.784;2023-06-22T01:18:29;1005.01;;;24.16;76.94
48810;BME280;40070;47.322;18.784;2023-06-22T01:20:33;1004.98;;;24.02;77.55
48810;BME280;40070;47.322;18.784;2023-06-22T01:22:39;1004.91;;;23.96;77.45
48810;BME280;40070;47.322;18.784;2023-06-22T01:29:28;1004.92;;;23.95;77.08
48810;BME280;40070;47.322;18.784;2023-06-22T01:31:31;1004.88;;;23.70;77.99
48810;BME280;40070;47.322;18.784;2023-06-22T01:33:35;1004.80;;;23.86;77.19
48810;BME280;40070;47.322;18.784;2023-06-22T01:35:39;1004.79;;;23.85;77.20
48810;BME280;40070;47.322;18.784;2023-06-22T01:37:42;1004.83;;;23.91;76.91
48810;BME280;40070;47.322;18.784;2023-06-22T01:39:45;1004.85;;;23.93;76.60
48810;BME280;40070;47.322;18.784;2023-06-22T01:41:48;1004.87;;;23.77;77.38
48810;BME280;40070;47.322;18.784;2023-06-22T01:43:50;1004.82;;;23.81;77.41
48810;BME280;40070;47.322;18.784;2023-06-22T01:45:54;1004.82;;;23.74;77.58
48810;BME280;40070;47.322;18.784;2023-06-22T01:47:57;1004.85;;;23.64;78.41
48810;BME280;40070;47.322;18.784;2023-06-22T01:50:00;1004.83;;;23.46;78.64
48810;BME280;40070;47.322;18.784;2023-06-22T01:52:03;1004.84;;;23.55;78.66
48810;BME280;40070;47.322;18.784;2023-06-22T01:54:06;1004.85;;;23.74;77.56
48810;BME280;40070;47.322;18.784;2023-06-22T01:56:09;1004.92;;;23.32;80.57
48810;BME280;40070;47.322;18.784;2023-06-22T01:58:12;1004.91;;;23.49;79.70
48810;BME280;40070;47.322;18.784;2023-06-22T02:00:17;1004.94;;;23.62;78.43
48810;BME280;40070;47.322;18.784;2023-06-22T02:02:20;1005.00;;;23.48;78.60
48810;BME280;40070;47.322;18.784;2023-06-22T02:04:27;1005.09;;;23.37;79.51
48810;BME280;40070;47.322;18.784;2023-06-22T02:06:34;1005.06;;;23.54;79.22
48810;BME280;40070;47.322;18.784;2023-06-22T02:08:41;1005.00;;;23.01;81.04
48810;BME280;40070;47.322;18.784;2023-06-22T02:10:48;1004.99;;;22.99;82.02
48810;BME280;40070;47.322;18.784;2023-06-22T02:12:51;1004.96;;;23.18;80.58
48810;BME280;40070;47.322;18.784;2023-06-22T02:14:54;1005.01;;;23.35;80.02
48810;BME280;40070;47.322;18.784;2023-06-22T02:16:58;1004.92;;;23.56;78.17
48810;BME280;40070;47.322;18.784;2023-06-22T02:19:01;1004.90;;;23.74;77.27
48810;BME280;40070;47.322;18.784;2023-06-22T02:21:03;1004.92;;;23.68;77.16
48810;BME280;40070;47.322;18.784;2023-06-22T02:23:06;1004.98;;;23.70;76.79
48810;BME280;40070;47.322;18.784;2023-06-22T02:25:09;1005.00;;;23.67;77.71
48810;BME280;40070;47.322;18.784;2023-06-22T02:27:12;1005.05;;;23.37;79.55
48810;BME280;40070;47.322;18.784;2023-06-22T02:29:14;1005.05;;;23.57;78.67
48810;BME280;40070;47.322;18.784;2023-06-22T02:31:17;1005.05;;;23.58;77.74
48810;BME280;40070;47.322;18.784;2023-06-22T02:33:19;1005.13;;;23.61;77.73
48810;BME280;40070;47.322;18.784;2023-06-22T02:35:22;1005.15;;;23.65;77.56
48810;BME280;40070;47.322;18.784;2023-06-22T02:37:24;1005.16;;;23.56;77.84
48810;BME280;40070;47.322;18.784;2023-06-22T02:39:27;1005.20;;;23.51;77.77
48810;BME280;40070;47.322;18.784;2023-06-22T02:41:29;1005.20;;;23.54;77.62
48810;BME280;40070;47.322;18.784;2023-06-22T02:43:32;1005.26;;;23.52;78.04
48810;BME280;40070;47.322;18.784;2023-06-22T02:45:34;1005.27;;;23.50;78.02
48810;BME280;40070;47.322;18.784;2023-06-22T02:47:37;1005.29;;;23.64;77.50
48810;BME280;40070;47.322;18.784;2023-06-22T02:49:39;1005.28;;;23.51;77.64
48810;BME280;40070;47.322;18.784;2023-06-22T02:51:44;1005.33;;;23.56;77.45
48810;BME280;40070;47.322;18.784;2023-06-22T02:53:47;1005.35;;;23.59;77.02
48810;BME280;40070;47.322;18.784;2023-06-22T02:55:50;1005.39;;;23.62;77.22
48810;BME280;40070;47.322;18.784;2023-06-22T02:57:52;1005.36;;;23.63;77.10
48810;BME280;40070;47.322;18.784;2023-06-22T02:59:54;1005.35;;;23.68;76.84
48810;BME280;40070;47.322;18.784;2023-06-22T03:01:57;1005.34;;;23.35;78.50
48810;BME280;40070;47.322;18.784;2023-06-22T03:03:59;1005.32;;;23.14;79.90
48810;BME280;40070;47.322;18.784;2023-06-22T03:06:02;1005.29;;;23.05;81.32
48810;BME280;40070;47.322;18.784;2023-06-22T03:08:05;1005.22;;;23.28;79.58
48810;BME280;40070;47.322;18.784;2023-06-22T03:10:08;1005.20;;;23.24;79.59
48810;BME280;40070;47.322;18.784;2023-06-22T03:12:11;1005.20;;;23.29;79.22
48810;BME280;40070;47.322;18.784;2023-06-22T03:14:13;1005.23;;;23.24;79.29
48810;BME280;40070;47.322;18.784;2023-06-22T03:16:16;1005.20;;;23.47;78.23
48810;BME280;40070;47.322;18.784;2023-06-22T03:18:18;1005.18;;;23.37;77.90
48810;BME280;40070;47.322;18.784;2023-06-22T03:20:21;1005.16;;;23.21;78.79
48810;BME280;40070;47.322;18.784;2023-06-22T03:22:23;1005.15;;;23.14;79.39
48810;BME280;40070;47.322;18.784;2023-06-22T03:24:26;1005.13;;;23.04;79.97
48810;BME280;40070;47.322;18.784;2023-06-22T03:26:28;1005.09;;;23.14;79.86
48810;BME280;40070;47.322;18.784;2023-06-22T03:28:31;1005.06;;;23.04;79.87
48810;BME280;40070;47.322;18.784;2023-06-22T03:30:33;1005.12;;;23.14;79.36
48810;BME280;40070;47.322;18.784;2023-06-22T03:32:36;1005.09;;;23.48;78.09
48810;BME280;40070;47.322;18.784;2023-06-22T03:34:38;1005.04;;;23.53;77.30
48810;BME280;40070;47.322;18.784;2023-06-22T03:36:41;1005.03;;;23.18;77.84
48810;BME280;40070;47.322;18.784;2023-06-22T03:38:43;1005.05;;;23.44;77.30
48810;BME280;40070;47.322;18.784;2023-06-22T03:40:46;1005.00;;;23.59;76.55
48810;BME280;40070;47.322;18.784;2023-06-22T03:42:48;1005.03;;;23.38;77.37
48810;BME280;40070;47.322;18.784;2023-06-22T03:44:51;1005.03;;;23.42;77.16
48810;BME280;40070;47.322;18.784;2023-06-22T03:46:53;1005.11;;;23.43;77.36
48810;BME280;40070;47.322;18.784;2023-06-22T03:48:56;1005.20;;;23.41;77.56
48810;BME280;40070;47.322;18.784;2023-06-22T03:51:01;1005.21;;;23.47;77.63
48810;BME280;40070;47.322;18.784;2023-06-22T03:53:04;1005.25;;;23.38;78.30
48810;BME280;40070;47.322;18.784;2023-06-22T03:55:07;1005.24;;;23.33;78.62
48810;BME280;40070;47.322;18.784;2023-06-22T03:57:09;1005.23;;;23.56;77.22
48810;BME280;40070;47.322;18.784;2023-06-22T03:59:12;1005.22;;;23.73;75.62
48810;BME280;40070;47.322;18.784;2023-06-22T04:01:14;1005.24;;;23.52;77.37
48810;BME280;40070;47.322;18.784;2023-06-22T04:03:17;1005.20;;;23.49;77.55
48810;BME280;40070;47.322;18.784;2023-06-22T04:05:20;1005.20;;;23.48;77.70
48810;BME280;40070;47.322;18.784;2023-06-22T04:07:22;1005.24;;;23.64;77.49
48810;BME280;40070;47.322;18.784;2023-06-22T04:09:25;1005.28;;;23.44;78.50
48810;BME280;40070;47.322;18.784;2023-06-22T04:11:27;1005.30;;;23.42;78.00
48810;BME280;40070;47.322;18.784;2023-06-22T04:13:30;1005.27;;;23.62;76.91
48810;BME280;40070;47.322;18.784;2023-06-22T04:15:32;1005.24;;;23.53;77.64
48810;BME280;40070;47.322;18.784;2023-06-22T04:17:35;1005.22;;;23.48;78.17
48810;BME280;40070;47.322;18.784;2023-06-22T04:19:37;1005.17;;;23.50;78.42
48810;BME280;40070;47.322;18.784;2023-06-22T04:21:40;1005.15;;;23.77;77.23
48810;BME280;40070;47.322;18.784;2023-06-22T04:23:42;1005.24;;;23.81;76.74
48810;BME280;40070;47.322;18.784;2023-06-22T04:25:45;1005.25;;;23.93;76.07
48810;BME280;40070;47.322;18.784;2023-06-22T04:27:47;1005.22;;;23.99;75.98
48810;BME280;40070;47.322;18.784;2023-06-22T04:29:50;1005.17;;;23.79;76.59
48810;BME280;40070;47.322;18.784;2023-06-22T04:31:52;1005.20;;;24.07;75.71
48810;BME280;40070;47.322;18.784;2023-06-22T04:33:55;1005.26;;;24.03;75.57
48810;BME280;40070;47.322;18.784;2023-06-22T04:35:58;1005.29;;;24.10;74.61
48810;BME280;40070;47.322;18.784;2023-06-22T04:38:00;1005.34;;;24.19;74.04
48810;BME280;40070;47.322;18.784;2023-06-22T04:40:03;1005.31;;;24.05;74.59
48810;BME280;40070;47.322;18.784;2023-06-22T04:42:05;1005.30;;;23.93;75.02
48810;BME280;40070;47.322;18.784;2023-06-22T04:44:11;1005.30;;;24.02;74.91
48810;BME280;40070;47.322;18.784;2023-06-22T04:46:14;1005.29;;;24.01;75.04
48810;BME280;40070;47.322;18.784;2023-06-22T04:48:17;1005.29;;;24.08;74.96
48810;BME280;40070;47.322;18.784;2023-06-22T04:50:19;1005.30;;;24.31;73.72
48810;BME280;40070;47.322;18.784;2023-06-22T04:52:22;1005.33;;;24.08;74.38
48810;BME280;40070;47.322;18.784;2023-06-22T04:54:24;1005.35;;;24.12;74.30
48810;BME280;40070;47.322;18.784;2023-06-22T04:56:27;1005.38;;;24.24;74.09
48810;BME280;40070;47.322;18.784;2023-06-22T04:58:30;1005.42;;;24.32;73.59
48810;BME280;40070;47.322;18.784;2023-06-22T05:00:32;1005.41;;;24.33;74.01
48810;BME280;40070;47.322;18.784;2023-06-22T05:02:35;1005.44;;;24.48;73.48
48810;BME280;40070;47.322;18.784;2023-06-22T05:04:37;1005.46;;;24.43;73.45
48810;BME280;40070;47.322;18.784;2023-06-22T05:06:40;1005.48;;;24.48;73.20
48810;BME280;40070;47.322;18.784;2023-06-22T05:08:42;1005.50;;;24.43;74.36
48810;BME280;40070;47.322;18.784;2023-06-22T05:10:45;1005.52;;;24.52;74.21
48810;BME280;40070;47.322;18.784;2023-06-22T05:12:47;1005.52;;;24.62;73.85
48810;BME280;40070;47.322;18.784;2023-06-22T05:14:50;1005.53;;;24.69;73.54
48810;BME280;40070;47.322;18.784;2023-06-22T05:16:52;1005.60;;;24.69;73.62
48810;BME280;40070;47.322;18.784;2023-06-22T05:18:55;1005.64;;;24.51;74.35
48810;BME280;40070;47.322;18.784;2023-06-22T05:20:58;1005.71;;;24.28;75.42
48810;BME280;40070;47.322;18.784;2023-06-22T05:23:00;1005.73;;;24.19;75.51
48810;BME280;40070;47.322;18.784;2023-06-22T05:25:03;1005.72;;;24.34;75.54
48810;BME280;40070;47.322;18.784;2023-06-22T05:27:06;1005.73;;;24.54;75.28
48810;BME280;40070;47.322;18.784;2023-06-22T05:29:08;1005.79;;;24.61;75.02
48810;BME280;40070;47.322;18.784;2023-06-22T05:31:12;1005.85;;;24.59;75.36
48810;BME280;40070;47.322;18.784;2023-06-22T05:33:14;1005.80;;;24.49;75.84
48810;BME280;40070;47.322;18.784;2023-06-22T05:35:17;1005.87;;;24.68;76.29
48810;BME280;40070;47.322;18.784;2023-06-22T05:37:19;1005.91;;;24.81;76.35
48810;BME280;40070;47.322;18.784;2023-06-22T05:39:22;1005.89;;;24.80;76.20
48810;BME280;40070;47.322;18.784;2023-06-22T05:41:24;1005.86;;;25.02;75.11
48810;BME280;40070;47.322;18.784;2023-06-22T05:43:27;1005.85;;;25.18;74.30
48810;BME280;40070;47.322;18.784;2023-06-22T05:45:29;1005.86;;;25.30;73.44
48810;BME280;40070;47.322;18.784;2023-06-22T05:47:32;1005.91;;;25.42;72.09
48810;BME280;40070;47.322;18.784;2023-06-22T05:49:34;1005.91;;;25.53;72.10
48810;BME280;40070;47.322;18.784;2023-06-22T05:51:37;1005.90;;;25.65;71.76
48810;BME280;40070;47.322;18.784;2023-06-22T05:53:39;1005.88;;;25.37;72.36
48810;BME280;40070;47.322;18.784;2023-06-22T05:55:42;1005.87;;;25.43;69.97
48810;BME280;40070;47.322;18.784;2023-06-22T05:57:44;1005.82;;;25.69;69.41
48810;BME280;40070;47.322;18.784;2023-06-22T05:59:47;1005.84;;;25.98;70.09
48810;BME280;40070;47.322;18.784;2023-06-22T06:01:49;1005.81;;;25.65;70.97
48810;BME280;40070;47.322;18.784;2023-06-22T06:03:52;1005.83;;;25.44;68.66
48810;BME280;40070;47.322;18.784;2023-06-22T06:05:55;1005.80;;;25.84;68.05
48810;BME280;40070;47.322;18.784;2023-06-22T06:07:57;1005.85;;;26.07;68.40
48810;BME280;40070;47.322;18.784;2023-06-22T06:10:00;1005.87;;;26.28;66.60
48810;BME280;40070;47.322;18.784;2023-06-22T06:12:02;1005.85;;;26.18;67.16
48810;BME280;40070;47.322;18.784;2023-06-22T06:14:05;1005.82;;;25.90;67.64
48810;BME280;40070;47.322;18.784;2023-06-22T06:16:08;1005.79;;;26.33;66.76
48810;BME280;40070;47.322;18.784;2023-06-22T06:18:10;1005.82;;;26.65;65.12
48810;BME280;40070;47.322;18.784;2023-06-22T06:20:13;1005.83;;;26.64;64.06
48810;BME280;40070;47.322;18.784;2023-06-22T06:22:15;1005.84;;;26.63;63.78
48810;BME280;40070;47.322;18.784;2023-06-22T06:24:18;1005.87;;;26.75;65.68
48810;BME280;40070;47.322;18.784;2023-06-22T06:26:20;1005.82;;;26.93;64.20
48810;BME280;40070;47.322;18.784;2023-06-22T06:28:24;1005.80;;;27.21;63.33
48810;BME280;40070;47.322;18.784;2023-06-22T06:30:26;1005.81;;;26.97;63.47
48810;BME280;40070;47.322;18.784;2023-06-22T06:32:29;1005.79;;;27.21;64.93
48810;BME280;40070;47.322;18.784;2023-06-22T06:34:32;1005.72;;;27.14;62.95
48810;BME280;40070;47.322;18.784;2023-06-22T06:36:34;1005.71;;;27.20;58.87
48810;BME280;40070;47.322;18.784;2023-06-22T06:38:37;1005.76;;;27.01;59.13
48810;BME280;40070;47.322;18.784;2023-06-22T06:40:39;1005.74;;;26.92;58.31
48810;BME280;40070;47.322;18.784;2023-06-22T06:42:45;1005.75;;;26.71;59.05
48810;BME280;40070;47.322;18.784;2023-06-22T06:44:48;1005.72;;;26.98;58.20
48810;BME280;40070;47.322;18.784;2023-06-22T06:46:50;1005.76;;;27.09;62.56
48810;BME280;40070;47.322;18.784;2023-06-22T06:48:53;1005.74;;;27.24;58.42
48810;BME280;40070;47.322;18.784;2023-06-22T06:50:55;1005.74;;;26.99;57.81
48810;BME280;40070;47.322;18.784;2023-06-22T06:52:58;1005.67;;;27.23;57.49
48810;BME280;40070;47.322;18.784;2023-06-22T06:55:00;1005.71;;;27.38;59.43
48810;BME280;40070;47.322;18.784;2023-06-22T06:57:03;1005.71;;;27.44;60.67
48810;BME280;40070;47.322;18.784;2023-06-22T06:59:06;1005.69;;;27.45;56.98
48810;BME280;40070;47.322;18.784;2023-06-22T07:01:08;1005.67;;;27.74;56.31
48810;BME280;40070;47.322;18.784;2023-06-22T07:03:11;1005.62;;;27.96;54.73
48810;BME280;40070;47.322;18.784;2023-06-22T07:05:13;1005.59;;;27.93;54.97
48810;BME280;40070;47.322;18.784;2023-06-22T07:07:16;1005.57;;;27.95;55.35
48810;BME280;40070;47.322;18.784;2023-06-22T07:09:18;1005.62;;;28.12;57.07
48810;BME280;40070;47.322;18.784;2023-06-22T07:11:21;1005.59;;;28.25;58.19
48810;BME280;40070;47.322;18.784;2023-06-22T07:13:23;1005.58;;;28.27;55.52
48810;BME280;40070;47.322;18.784;2023-06-22T07:15:26;1005.53;;;28.44;56.51
48810;BME280;40070;47.322;18.784;2023-06-22T07:17:28;1005.54;;;28.45;56.85
48810;BME280;40070;47.322;18.784;2023-06-22T07:19:32;1005.49;;;28.49;54.18
48810;BME280;40070;47.322;18.784;2023-06-22T07:21:35;1005.48;;;28.43;54.21
48810;BME280;40070;47.322;18.784;2023-06-22T07:23:37;1005.47;;;28.63;54.19
48810;BME280;40070;47.322;18.784;2023-06-22T07:25:40;1005.53;;;28.69;53.24
48810;BME280;40070;47.322;18.784;2023-06-22T07:27:46;1005.49;;;28.96;54.04
48810;BME280;40070;47.322;18.784;2023-06-22T07:29:48;1005.53;;;28.82;54.01
48810;BME280;40070;47.322;18.784;2023-06-22T07:31:51;1005.54;;;28.73;52.88
48810;BME280;40070;47.322;18.784;2023-06-22T07:33:54;1005.57;;;28.47;53.37
48810;BME280;40070;47.322;18.784;2023-06-22T07:35:56;1005.64;;;28.65;54.79
48810;BME280;40070;47.322;18.784;2023-06-22T07:37:59;1005.60;;;28.97;53.59
48810;BME280;40070;47.322;18.784;2023-06-22T07:40:02;1005.59;;;29.05;54.21
48810;BME280;40070;47.322;18.784;2023-06-22T07:42:04;1005.58;;;29.19;52.14
48810;BME280;40070;47.322;18.784;2023-06-22T07:44:07;1005.55;;;29.06;51.78
48810;BME280;40070;47.322;18.784;2023-06-22T07:46:09;1005.52;;;29.26;50.84
48810;BME280;40070;47.322;18.784;2023-06-22T07:48:12;1005.51;;;29.30;52.05
48810;BME280;40070;47.322;18.784;2023-06-22T07:50:14;1005.53;;;29.45;52.03
48810;BME280;40070;47.322;18.784;2023-06-22T07:52:17;1005.53;;;29.52;52.13
48810;BME280;40070;47.322;18.784;2023-06-22T07:54:20;1005.50;;;29.49;50.74
48810;BME280;40070;47.322;18.784;2023-06-22T07:56:22;1005.47;;;29.45;51.22
48810;BME280;40070;47.322;18.784;2023-06-22T07:58:24;1005.44;;;29.72;53.59
48810;BME280;40070;47.322;18.784;2023-06-22T08:00:27;1005.48;;;29.44;51.26
48810;BME280;40070;47.322;18.784;2023-06-22T08:02:29;1005.40;;;29.57;51.25
48810;BME280;40070;47.322;18.784;2023-06-22T08:04:32;1005.43;;;29.84;51.04
48810;BME280;40070;47.322;18.784;2023-06-22T08:06:35;1005.45;;;29.39;53.51
48810;BME280;40070;47.322;18.784;2023-06-22T08:08:37;1005.45;;;29.51;54.77
48810;BME280;40070;47.322;18.784;2023-06-22T08:10:40;1005.46;;;29.76;51.24
48810;BME280;40070;47.322;18.784;2023-06-22T08:12:42;1005.45;;;29.65;51.41
48810;BME280;40070;47.322;18.784;2023-06-22T08:14:45;1005.45;;;29.89;52.29
48810;BME280;40070;47.322;18.784;2023-06-22T08:16:47;1005.40;;;30.19;50.59
48810;BME280;40070;47.322;18.784;2023-06-22T08:18:50;1005.45;;;30.21;49.81
48810;BME280;40070;47.322;18.784;2023-06-22T08:20:52;1005.44;;;30.46;51.20
48810;BME280;40070;47.322;18.784;2023-06-22T08:22:55;1005.38;;;30.47;52.11
48810;BME280;40070;47.322;18.784;2023-06-22T08:24:58;1005.37;;;30.33;52.02
48810;BME280;40070;47.322;18.784;2023-06-22T08:27:00;1005.36;;;30.61;51.77
48810;BME280;40070;47.322;18.784;2023-06-22T08:29:03;1005.30;;;30.30;50.50
48810;BME280;40070;47.322;18.784;2023-06-22T08:31:06;1005.32;;;30.55;50.46
48810;BME280;40070;47.322;18.784;2023-06-22T08:33:08;1005.33;;;30.61;50.48
48810;BME280;40070;47.322;18.784;2023-06-22T08:35:11;1005.32;;;30.73;49.11
48810;BME280;40070;47.322;18.784;2023-06-22T08:37:13;1005.31;;;30.78;49.92
48810;BME280;40070;47.322;18.784;2023-06-22T08:39:16;1005.21;;;31.02;48.19
48810;BME280;40070;47.322;18.784;2023-06-22T08:41:18;1005.33;;;30.84;48.96
48810;BME280;40070;47.322;18.784;2023-06-22T08:43:21;1005.30;;;30.83;48.75
48810;BME280;40070;47.322;18.784;2023-06-22T08:45:23;1005.26;;;30.81;48.70
48810;BME280;40070;47.322;18.784;2023-06-22T08:47:29;1005.16;;;31.00;47.57
48810;BME280;40070;47.322;18.784;2023-06-22T08:49:31;1005.14;;;31.09;47.26
48810;BME280;40070;47.322;18.784;2023-06-22T08:51:34;1005.13;;;30.95;47.61
48810;BME280;40070;47.322;18.784;2023-06-22T08:53:36;1005.13;;;30.82;47.50
48810;BME280;40070;47.322;18.784;2023-06-22T08:55:39;1005.12;;;31.12;48.14
48810;BME280;40070;47.322;18.784;2023-06-22T08:57:41;1005.09;;;31.34;47.19
48810;BME280;40070;47.322;18.784;2023-06-22T08:59:44;1005.06;;;31.40;49.38
48810;BME280;40070;47.322;18.784;2023-06-22T09:01:46;1004.99;;;31.46;48.60
48810;BME280;40070;47.322;18.784;2023-06-22T09:03:49;1005.01;;;31.62;48.30
48810;BME280;40070;47.322;18.784;2023-06-22T09:05:51;1005.03;;;31.42;47.55
48810;BME280;40070;47.322;18.784;2023-06-22T09:07:55;1004.96;;;31.69;46.00
48810;BME280;40070;47.322;18.784;2023-06-22T09:09:58;1004.93;;;31.64;45.58
48810;BME280;40070;47.322;18.784;2023-06-22T09:12:00;1004.93;;;31.94;46.65
48810;BME280;40070;47.322;18.784;2023-06-22T09:14:03;1004.91;;;31.89;46.04
48810;BME280;40070;47.322;18.784;2023-06-22T09:16:05;1004.91;;;32.26;47.18
48810;BME280;40070;47.322;18.784;2023-06-22T09:18:10;1004.87;;;32.11;44.78
48810;BME280;40070;47.322;18.784;2023-06-22T09:20:12;1004.89;;;32.19;45.23
48810;BME280;40070;47.322;18.784;2023-06-22T09:22:15;1004.88;;;32.06;44.48
48810;BME280;40070;47.322;18.784;2023-06-22T09:24:17;1004.86;;;32.09;45.66
48810;BME280;40070;47.322;18.784;2023-06-22T09:26:20;1004.84;;;31.80;45.00
48810;BME280;40070;47.322;18.784;2023-06-22T09:28:23;1004.81;;;32.10;44.32
48810;BME280;40070;47.322;18.784;2023-06-22T09:30:25;1004.82;;;32.20;44.39
48810;BME280;40070;47.322;18.784;2023-06-22T09:32:28;1004.83;;;32.48;45.23
48810;BME280;40070;47.322;18.784;2023-06-22T09:34:30;1004.77;;;32.26;45.36
48810;BME280;40070;47.322;18.784;2023-06-22T09:36:33;1004.73;;;32.38;44.42
48810;BME280;40070;47.322;18.784;2023-06-22T09:38:36;1004.73;;;32.63;43.11
48810;BME280;40070;47.322;18.784;2023-06-22T09:40:38;1004.68;;;32.59;43.21
48810;BME280;40070;47.322;18.784;2023-06-22T09:42:41;1004.71;;;32.71;45.33
48810;BME280;40070;47.322;18.784;2023-06-22T09:44:43;1004.69;;;32.63;42.59
48810;BME280;40070;47.322;18.784;2023-06-22T09:46:46;1004.63;;;32.66;43.16
48810;BME280;40070;47.322;18.784;2023-06-22T09:48:48;1004.64;;;33.08;42.79
48810;BME280;40070;47.322;18.784;2023-06-22T09:50:51;1004.65;;;33.42;42.17
48810;BME280;40070;47.322;18.784;2023-06-22T09:52:53;1004.70;;;33.21;43.35
48810;BME280;40070;47.322;18.784;2023-06-22T09:54:56;1004.73;;;33.56;42.06
48810;BME280;40070;47.322;18.784;2023-06-22T09:56:58;1004.70;;;33.65;41.46
48810;BME280;40070;47.322;18.784;2023-06-22T09:59:01;1004.70;;;33.44;43.97
48810;BME280;40070;47.322;18.784;2023-06-22T10:01:03;1004.67;;;33.42;42.29
48810;BME280;40070;47.322;18.784;2023-06-22T10:03:06;1004.65;;;33.58;43.07
48810;BME280;40070;47.322;18.784;2023-06-22T10:05:08;1004.64;;;33.22;45.41
48810;BME280;40070;47.322;18.784;2023-06-22T10:07:11;1004.61;;;33.53;42.86
48810;BME280;40070;47.322;18.784;2023-06-22T10:09:13;1004.61;;;33.51;41.24
48810;BME280;40070;47.322;18.784;2023-06-22T10:11:16;1004.63;;;33.78;40.82
48810;BME280;40070;47.322;18.784;2023-06-22T10:13:18;1004.62;;;33.75;41.55
48810;BME280;40070;47.322;18.784;2023-06-22T10:15:21;1004.55;;;33.64;41.15
48810;BME280;40070;47.322;18.784;2023-06-22T10:17:23;1004.59;;;33.93;42.35
48810;BME280;40070;47.322;18.784;2023-06-22T10:19:26;1004.61;;;34.11;40.97
48810;BME280;40070;47.322;18.784;2023-06-22T10:21:28;1004.64;;;34.35;40.66
48810;BME280;40070;47.322;18.784;2023-06-22T10:23:31;1004.63;;;33.84;40.92
48810;BME280;40070;47.322;18.784;2023-06-22T10:25:33;1004.60;;;34.02;40.57
48810;BME280;40070;47.322;18.784;2023-06-22T10:27:36;1004.57;;;34.16;41.32
48810;BME280;40070;47.322;18.784;2023-06-22T10:29:38;1004.59;;;34.13;41.88
48810;BME280;40070;47.322;18.784;2023-06-22T10:31:41;1004.57;;;34.00;41.25
48810;BME280;40070;47.322;18.784;2023-06-22T10:33:43;1004.55;;;34.28;40.07
48810;BME280;40070;47.322;18.784;2023-06-22T10:35:46;1004.53;;;34.07;40.06
48810;BME280;40070;47.322;18.784;2023-06-22T10:37:48;1004.50;;;34.22;38.50
48810;BME280;40070;47.322;18.784;2023-06-22T10:39:51;1004.47;;;34.33;39.20
48810;BME280;40070;47.322;18.784;2023-06-22T10:41:53;1004.51;;;34.44;39.93
48810;BME280;40070;47.322;18.784;2023-06-22T10:43:56;1004.48;;;34.50;39.40
48810;BME280;40070;47.322;18.784;2023-06-22T10:45:58;1004.50;;;34.47;41.04
48810;BME280;40070;47.322;18.784;2023-06-22T10:48:01;1004.45;;;34.56;39.30
48810;BME280;40070;47.322;18.784;2023-06-22T10:50:04;1004.49;;;34.37;41.92
48810;BME280;40070;47.322;18.784;2023-06-22T10:52:07;1004.40;;;34.89;40.02
48810;BME280;40070;47.322;18.784;2023-06-22T10:54:10;1004.43;;;34.76;38.45
48810;BME280;40070;47.322;18.784;2023-06-22T10:56:12;1004.45;;;34.75;39.53